createdAt,value
2022-11-16T00:00:29.582Z,88.82
2022-11-16T00:02:58.565Z,88.63
2022-11-16T00:05:28.551Z,88.36
2022-11-16T00:07:58.728Z,88.96
2022-11-16T00:10:27.276Z,88.83
2022-11-16T00:12:56.046Z,88.55
2022-11-16T00:15:25.140Z,88.81
2022-11-16T00:17:53.868Z,88.46
2022-11-16T00:20:23.698Z,88.93
2022-11-16T00:22:52.596Z,88.33
2022-11-16T00:25:21.565Z,89.29
2022-11-16T00:27:51.178Z,89.10
2022-11-16T00:30:20.200Z,88.14
2022-11-16T00:32:48.996Z,88.21
2022-11-16T00:35:18.184Z,88.94
2022-11-16T00:37:46.987Z,88.10
2022-11-16T00:40:15.820Z,88.62
2022-11-16T00:42:44.671Z,88.11
2022-11-16T00:45:13.515Z,88.40
2022-11-16T00:47:42.851Z,88.57
2022-11-16T00:50:11.599Z,88.52
2022-11-16T00:52:40.170Z,88.46
2022-11-16T00:55:09.800Z,88.44
2022-11-16T00:57:38.569Z,88.28
2022-11-16T01:00:08.967Z,88.03
2022-11-16T01:02:38.020Z,88.19
2022-11-16T01:05:08.129Z,88.34
2022-11-16T01:07:39.059Z,88.17
2022-11-16T01:10:11.945Z,88.37
2022-11-16T01:12:41.312Z,88.41
2022-11-16T01:15:11.595Z,87.89
2022-11-16T01:17:41.360Z,88.05
2022-11-16T01:20:14.596Z,87.80
2022-11-16T01:22:44.258Z,87.86
2022-11-16T01:25:14.410Z,87.79
2022-11-16T01:27:44.159Z,87.57
2022-11-16T01:30:19.929Z,87.71
2022-11-16T01:32:59.246Z,88.06
2022-11-16T01:35:27.901Z,88.16
2022-11-16T01:37:57.002Z,88.08
2022-11-16T01:40:28.846Z,87.90
2022-11-16T01:42:57.695Z,88.33
2022-11-16T01:45:38.744Z,88.45
2022-11-16T01:48:15.042Z,88.67
2022-11-16T01:50:46.222Z,88.04
2022-11-16T01:53:18.266Z,87.87
2022-11-16T01:55:52.282Z,87.55
2022-11-16T01:58:39.937Z,87.70
2022-11-16T02:01:19.272Z,87.46
2022-11-16T02:03:53.614Z,87.27
2022-11-16T02:06:28.514Z,87.75
2022-11-16T02:09:42.815Z,87.41
2022-11-16T02:12:33.264Z,87.97
2022-11-16T02:15:28.305Z,88.03
2022-11-16T02:18:37.878Z,88.22
2022-11-16T02:21:29.547Z,88.05
2022-11-16T02:24:16.362Z,88.14
2022-11-16T02:26:48.020Z,87.75
2022-11-16T02:29:36.766Z,88.09
2022-11-16T02:32:20.735Z,87.83
2022-11-16T02:35:01.907Z,88.26
2022-11-16T02:37:35.418Z,88.41
2022-11-16T02:40:08.992Z,88.07
2022-11-16T02:42:51.987Z,88.39
2022-11-16T02:45:27.899Z,88.30
2022-11-16T02:48:07.397Z,88.00
2022-11-16T02:50:37.716Z,87.58
2022-11-16T02:53:06.256Z,87.81
2022-11-16T02:55:40.777Z,87.51
2022-11-16T02:58:15.469Z,87.67
2022-11-16T03:01:09.421Z,87.84
2022-11-16T03:04:04.306Z,86.85
2022-11-16T03:06:40.035Z,86.95
2022-11-16T03:09:18.100Z,87.00
2022-11-16T03:12:00.791Z,87.25
2022-11-16T03:14:37.640Z,86.40
2022-11-16T03:17:10.020Z,86.82
2022-11-16T03:19:44.903Z,86.77
2022-11-16T03:22:27.249Z,86.67
2022-11-16T03:24:56.518Z,86.38
2022-11-16T03:27:27.855Z,86.11
2022-11-16T03:30:08.870Z,85.94
2022-11-16T03:32:45.067Z,86.26
2022-11-16T03:35:23.605Z,86.14
2022-11-16T03:37:56.667Z,86.12
2022-11-16T03:40:29.991Z,86.38
2022-11-16T03:43:01.974Z,86.15
2022-11-16T03:45:35.406Z,86.50
2022-11-16T03:48:07.585Z,86.43
2022-11-16T03:50:37.239Z,85.98
2022-11-16T03:53:06.919Z,86.68
2022-11-16T03:55:57.009Z,86.77
2022-11-16T03:58:50.044Z,86.34
2022-11-16T04:01:19.565Z,86.70
2022-11-16T04:03:49.739Z,85.93
2022-11-16T04:06:38.903Z,85.97
2022-11-16T04:09:26.181Z,85.83
2022-11-16T04:12:13.304Z,86.50
2022-11-16T04:15:09.932Z,86.23
2022-11-16T04:17:57.179Z,85.83
2022-11-16T04:20:47.657Z,85.32
2022-11-16T04:23:35.939Z,85.84
2022-11-16T04:26:13.150Z,85.86
2022-11-16T04:28:42.759Z,84.92
2022-11-16T04:31:30.326Z,85.76
2022-11-16T04:34:23.280Z,85.56
2022-11-16T04:37:13.393Z,85.39
2022-11-16T04:39:42.508Z,84.82
2022-11-16T04:42:20.681Z,84.37
2022-11-16T04:45:10.559Z,84.99
2022-11-16T04:47:50.657Z,85.40
2022-11-16T04:50:21.716Z,84.42
2022-11-16T04:52:52.148Z,84.82
2022-11-16T04:55:21.799Z,84.88
2022-11-16T04:57:52.329Z,84.69
2022-11-16T05:00:22.316Z,84.69
2022-11-16T05:02:51.463Z,84.83
2022-11-16T05:05:20.396Z,84.08
2022-11-16T05:07:50.957Z,84.05
2022-11-16T05:10:25.556Z,84.35
2022-11-16T05:12:55.037Z,84.17
2022-11-16T05:15:24.916Z,83.80
2022-11-16T05:17:56.376Z,83.86
2022-11-16T05:20:45.256Z,83.94
2022-11-16T05:23:34.635Z,83.55
2022-11-16T05:26:09.572Z,83.48
2022-11-16T05:28:39.260Z,83.89
2022-11-16T05:31:10.937Z,84.08
2022-11-16T05:33:40.314Z,83.05
2022-11-16T05:36:10.379Z,83.21
2022-11-16T05:38:40.298Z,83.07
2022-11-16T05:41:09.121Z,82.76
2022-11-16T05:43:38.718Z,83.07
2022-11-16T05:46:15.981Z,81.99
2022-11-16T05:48:45.099Z,82.71
2022-11-16T05:51:14.378Z,82.82
2022-11-16T05:53:44.737Z,82.44
2022-11-16T05:56:18.222Z,82.25
2022-11-16T05:58:47.724Z,82.41
2022-11-16T06:01:16.758Z,82.25
2022-11-16T06:03:45.786Z,82.69
2022-11-16T06:06:14.580Z,82.32
2022-11-16T06:08:44.212Z,82.92
2022-11-16T06:11:16.977Z,82.85
2022-11-16T06:13:46.918Z,82.65
2022-11-16T06:16:15.676Z,82.10
2022-11-16T06:18:47.517Z,81.82
2022-11-16T06:21:20.706Z,82.19
2022-11-16T06:23:50.208Z,81.95
2022-11-16T06:26:19.059Z,81.59
2022-11-16T06:28:52.634Z,81.90
2022-11-16T06:31:21.349Z,81.68
2022-11-16T06:33:50.168Z,81.57
2022-11-16T06:36:26.554Z,81.52
2022-11-16T06:39:00.098Z,82.31
2022-11-16T06:41:38.842Z,81.35
2022-11-16T06:44:12.296Z,80.39
2022-11-16T06:46:55.516Z,81.04
2022-11-16T06:49:24.925Z,80.95
2022-11-16T06:51:56.509Z,80.67
2022-11-16T06:54:25.467Z,80.00
2022-11-16T06:56:54.129Z,79.84
2022-11-16T06:59:23.279Z,79.79
2022-11-16T07:01:53.260Z,79.63
2022-11-16T07:04:22.348Z,79.71
2022-11-16T07:06:56.491Z,79.54
2022-11-16T07:09:25.748Z,80.28
2022-11-16T07:11:54.635Z,80.08
2022-11-16T07:14:23.475Z,79.65
2022-11-16T07:16:57.898Z,80.11
2022-11-16T07:19:29.489Z,79.68
2022-11-16T07:21:58.609Z,79.16
2022-11-16T07:24:31.447Z,79.02
2022-11-16T07:27:00.529Z,79.88
2022-11-16T07:29:45.129Z,80.04
2022-11-16T07:32:33.740Z,79.82
2022-11-16T07:35:08.529Z,79.71
2022-11-16T07:37:45.492Z,79.83
2022-11-16T07:40:16.658Z,79.95
2022-11-16T07:42:48.839Z,80.08
2022-11-16T07:45:26.331Z,79.89
2022-11-16T07:48:02.563Z,80.00
2022-11-16T07:51:14.895Z,80.29
2022-11-16T07:53:53.351Z,80.67
2022-11-16T07:56:27.321Z,80.94
2022-11-16T07:58:56.628Z,80.27
2022-11-16T08:01:25.459Z,80.38
2022-11-16T08:03:54.964Z,81.14
2022-11-16T08:06:28.709Z,80.40
2022-11-16T08:08:58.800Z,80.60
2022-11-16T08:11:27.912Z,81.03
2022-11-16T08:14:01.847Z,80.32
2022-11-16T08:16:33.767Z,79.93
2022-11-16T08:20:00.521Z,80.27
2022-11-16T08:22:42.529Z,79.51
2022-11-16T08:25:14.893Z,79.69
2022-11-16T08:27:45.226Z,79.17
2022-11-16T08:30:14.431Z,80.15
2022-11-16T08:32:46.108Z,79.80
2022-11-16T08:35:16.408Z,80.22
2022-11-16T08:37:50.607Z,79.69
2022-11-16T08:40:19.828Z,79.53
2022-11-16T08:42:49.827Z,79.62
2022-11-16T08:45:18.569Z,79.54
2022-11-16T08:47:47.229Z,79.73
2022-11-16T08:50:16.921Z,79.67
2022-11-16T08:52:46.815Z,79.25
2022-11-16T08:55:15.499Z,79.18
2022-11-16T08:57:44.520Z,79.11
2022-11-16T09:00:15.397Z,79.51
2022-11-16T09:02:44.382Z,79.72
2022-11-16T09:05:13.160Z,78.41
2022-11-16T09:07:44.031Z,78.74
2022-11-16T09:10:13.994Z,78.60
2022-11-16T09:12:45.068Z,78.52
2022-11-16T09:15:13.777Z,78.90
2022-11-16T09:17:42.731Z,79.11
2022-11-16T09:20:11.489Z,79.35
2022-11-16T09:22:40.276Z,79.28
2022-11-16T09:25:10.041Z,78.67
2022-11-16T09:27:38.892Z,79.08
2022-11-16T09:30:08.633Z,78.92
2022-11-16T09:32:37.440Z,79.14
2022-11-16T09:35:06.243Z,79.86
2022-11-16T09:37:35.002Z,79.23
2022-11-16T09:40:03.705Z,78.76
2022-11-16T09:42:51.326Z,79.10
2022-11-16T09:45:28.051Z,78.63
2022-11-16T09:48:03.043Z,79.86
2022-11-16T09:50:35.463Z,79.28
2022-11-16T09:53:28.150Z,79.05
2022-11-16T09:56:05.458Z,79.72
2022-11-16T09:59:05.922Z,79.09
2022-11-16T10:01:58.676Z,78.44
2022-11-16T10:04:52.504Z,79.08
2022-11-16T10:07:32.546Z,79.04
2022-11-16T10:10:01.420Z,78.77
2022-11-16T10:12:44.471Z,78.81
2022-11-16T10:15:49.068Z,79.81
2022-11-16T10:18:23.663Z,79.52
2022-11-16T10:21:09.141Z,79.06
2022-11-16T10:23:45.701Z,79.97
2022-11-16T10:26:44.300Z,78.34
2022-11-16T10:29:38.480Z,78.92
2022-11-16T10:32:32.936Z,80.11
2022-11-16T10:35:09.704Z,79.63
2022-11-16T10:37:45.161Z,79.16
2022-11-16T10:40:29.950Z,79.68
2022-11-16T10:42:58.531Z,80.71
2022-11-16T10:45:36.242Z,79.87
2022-11-16T10:48:18.640Z,78.92
2022-11-16T10:50:49.970Z,79.41
2022-11-16T10:53:37.021Z,79.26
2022-11-16T10:56:26.559Z,79.29
2022-11-16T10:59:10.147Z,79.36
2022-11-16T11:01:44.583Z,78.90
2022-11-16T11:04:15.879Z,79.09
2022-11-16T11:06:45.098Z,79.40
2022-11-16T11:09:22.582Z,79.03
2022-11-16T11:12:31.240Z,78.34
2022-11-16T11:15:05.254Z,78.73
2022-11-16T11:17:36.178Z,78.75
2022-11-16T11:20:12.301Z,78.74
2022-11-16T11:22:45.063Z,79.26
2022-11-16T11:25:24.977Z,79.12
2022-11-16T11:28:23.961Z,79.00
2022-11-16T11:31:17.977Z,79.58
2022-11-16T11:34:00.358Z,79.15
2022-11-16T11:36:41.081Z,79.24
2022-11-16T11:39:30.272Z,79.18
2022-11-16T11:42:06.940Z,79.31
2022-11-16T11:44:50.667Z,79.03
2022-11-16T11:47:59.377Z,79.56
2022-11-16T11:50:49.293Z,79.51
2022-11-16T11:53:36.657Z,79.68
2022-11-16T11:56:05.832Z,79.53
2022-11-16T11:58:38.020Z,78.89
2022-11-16T12:01:32.748Z,78.86
2022-11-16T12:04:12.905Z,78.99
2022-11-16T12:06:50.343Z,78.94
2022-11-16T12:09:50.538Z,78.96
2022-11-16T12:12:43.418Z,78.65
2022-11-16T12:15:40.620Z,78.88
2022-11-16T12:18:21.241Z,79.26
2022-11-16T12:20:55.743Z,79.24
2022-11-16T12:23:51.121Z,79.06
2022-11-16T12:26:28.921Z,79.06
2022-11-16T12:29:24.697Z,79.25
2022-11-16T12:32:05.222Z,79.35
2022-11-16T12:34:50.341Z,79.58
2022-11-16T12:37:36.643Z,79.55
2022-11-16T12:40:35.103Z,79.64
2022-11-16T12:43:20.201Z,79.25
2022-11-16T12:46:11.172Z,79.27
2022-11-16T12:49:00.003Z,79.07
2022-11-16T12:52:04.936Z,78.95
2022-11-16T12:55:19.073Z,78.97
2022-11-16T12:58:22.646Z,79.21
2022-11-16T13:01:19.075Z,79.64
2022-11-16T13:03:55.995Z,79.94
2022-11-16T13:06:39.883Z,79.27
2022-11-16T13:09:17.440Z,79.18
2022-11-16T13:11:52.584Z,79.31
2022-11-16T13:14:45.493Z,79.41
2022-11-16T13:17:25.281Z,79.13
2022-11-16T13:20:25.856Z,79.30
2022-11-16T13:23:09.855Z,79.40
2022-11-16T13:25:48.396Z,79.44
2022-11-16T13:28:33.382Z,78.87
2022-11-16T13:31:20.733Z,79.31
2022-11-16T13:34:00.674Z,78.83
2022-11-16T13:36:44.523Z,78.56
2022-11-16T13:39:22.334Z,78.16
2022-11-16T13:42:07.615Z,78.14
2022-11-16T13:44:36.928Z,78.36
2022-11-16T13:47:20.426Z,78.52
2022-11-16T13:50:00.421Z,78.06
2022-11-16T13:53:57.718Z,77.21
2022-11-16T13:56:06.986Z,77.58
2022-11-16T13:58:38.659Z,77.56
2022-11-16T14:01:18.087Z,78.08
2022-11-16T14:03:52.475Z,78.14
2022-11-16T14:06:20.687Z,78.26
2022-11-16T14:08:57.486Z,77.50
2022-11-16T14:11:40.851Z,77.66
2022-11-16T14:14:33.774Z,77.63
2022-11-16T14:17:02.681Z,78.27
2022-11-16T14:19:48.278Z,77.72
2022-11-16T14:22:45.853Z,77.74
2022-11-16T14:25:27.975Z,77.57
2022-11-16T14:28:13.074Z,77.71
2022-11-16T14:30:50.517Z,77.39
2022-11-16T14:33:31.442Z,77.69
2022-11-16T14:36:02.016Z,78.35
2022-11-16T14:38:36.177Z,78.17
2022-11-16T14:41:08.152Z,78.88
2022-11-16T14:43:41.473Z,78.92
2022-11-16T14:46:22.672Z,78.23
2022-11-16T14:48:51.656Z,78.24
2022-11-16T14:51:32.838Z,78.92
2022-11-16T14:54:05.981Z,78.89
2022-11-16T14:56:34.681Z,78.80
2022-11-16T14:59:04.091Z,77.98
2022-11-16T15:01:40.802Z,78.25
2022-11-16T15:04:11.962Z,78.66
2022-11-16T15:06:53.010Z,78.62
2022-11-16T15:09:30.688Z,78.31
2022-11-16T15:12:20.811Z,78.58
2022-11-16T15:14:53.646Z,78.38
2022-11-16T15:17:31.716Z,78.62
2022-11-16T15:20:24.099Z,78.70
2022-11-16T15:22:55.971Z,78.24
2022-11-16T15:25:44.697Z,78.44
2022-11-16T15:28:29.168Z,78.35
2022-11-16T15:31:05.193Z,79.32
2022-11-16T15:33:43.871Z,78.57
2022-11-16T15:36:31.294Z,79.00
2022-11-16T15:39:02.454Z,78.65
2022-11-16T15:41:31.687Z,78.24
2022-11-16T15:44:13.938Z,78.74
2022-11-16T15:46:47.780Z,79.77
2022-11-16T15:49:28.925Z,79.86
2022-11-16T15:52:01.747Z,79.87
2022-11-16T15:54:52.814Z,79.30
2022-11-16T15:57:23.744Z,78.53
2022-11-16T15:59:58.079Z,78.62
2022-11-16T16:02:31.040Z,78.44
2022-11-16T16:04:59.749Z,79.10
2022-11-16T16:07:44.926Z,78.12
2022-11-16T16:10:20.907Z,78.42
2022-11-16T16:12:58.317Z,77.87
2022-11-16T16:15:37.071Z,77.90
2022-11-16T16:18:35.724Z,79.29
2022-11-16T16:21:04.415Z,78.52
2022-11-16T16:23:33.587Z,78.33
2022-11-16T16:26:05.434Z,78.54
2022-11-16T16:28:34.170Z,79.20
2022-11-16T16:31:02.775Z,78.87
2022-11-16T16:33:31.999Z,78.79
2022-11-16T16:36:01.004Z,78.27
2022-11-16T16:38:30.535Z,78.02
2022-11-16T16:41:05.458Z,78.67
2022-11-16T16:43:34.783Z,78.98
2022-11-16T16:46:04.906Z,77.99
2022-11-16T16:48:34.009Z,77.88
2022-11-16T16:51:02.985Z,78.38
2022-11-16T16:53:32.087Z,78.63
2022-11-16T16:56:02.557Z,79.30
2022-11-16T16:58:31.131Z,78.86
2022-11-16T17:01:04.527Z,78.20
2022-11-16T17:03:33.850Z,78.95
2022-11-16T17:06:03.245Z,78.66
2022-11-16T17:08:36.528Z,78.74
2022-11-16T17:11:06.403Z,78.24
2022-11-16T17:13:35.765Z,78.63
2022-11-16T17:16:08.194Z,78.34
2022-11-16T17:18:37.118Z,78.99
2022-11-16T17:21:10.330Z,78.55
2022-11-16T17:23:39.216Z,78.31
2022-11-16T17:26:10.372Z,79.09
2022-11-16T17:28:42.004Z,78.71
2022-11-16T17:31:12.816Z,79.29
2022-11-16T17:33:43.629Z,78.14
2022-11-16T17:36:14.209Z,77.74
2022-11-16T17:38:43.333Z,77.48
2022-11-16T17:41:14.967Z,77.76
2022-11-16T17:43:47.405Z,78.55
2022-11-16T17:46:18.677Z,78.25
2022-11-16T17:48:49.158Z,77.78
2022-11-16T17:51:20.819Z,78.04
2022-11-16T17:53:52.858Z,77.44
2022-11-16T17:56:30.004Z,77.27
2022-11-16T17:59:01.576Z,78.05
2022-11-16T18:01:30.724Z,77.26
2022-11-16T18:04:01.998Z,78.69
2022-11-16T18:06:31.802Z,78.68
2022-11-16T18:09:00.861Z,77.75
2022-11-16T18:11:30.179Z,78.25
2022-11-16T18:14:06.254Z,78.99
2022-11-16T18:16:35.677Z,78.25
2022-11-16T18:19:07.005Z,79.12
2022-11-16T18:21:42.971Z,77.55
2022-11-16T18:24:12.275Z,78.85
2022-11-16T18:26:44.384Z,78.49
2022-11-16T18:29:16.468Z,78.49
2022-11-16T18:31:45.425Z,78.20
2022-11-16T18:34:15.680Z,77.91
2022-11-16T18:36:44.840Z,78.58
2022-11-16T18:39:13.965Z,78.36
2022-11-16T18:41:51.733Z,78.44
2022-11-16T18:44:23.904Z,77.86
2022-11-16T18:46:52.609Z,78.59
2022-11-16T18:49:21.511Z,77.31
2022-11-16T18:51:50.229Z,77.89
2022-11-16T18:54:19.043Z,79.08
2022-11-16T18:56:48.688Z,78.01
2022-11-16T18:59:17.405Z,77.75
2022-11-16T19:01:46.167Z,78.10
2022-11-16T19:04:14.947Z,78.78
2022-11-16T19:06:43.466Z,77.69
2022-11-16T19:09:12.157Z,78.61
2022-11-16T19:11:40.694Z,78.26
2022-11-16T19:14:09.375Z,78.11
2022-11-16T19:16:40.552Z,79.22
2022-11-16T19:19:11.914Z,78.66
2022-11-16T19:21:40.874Z,78.60
2022-11-16T19:24:09.542Z,78.67
2022-11-16T19:26:38.012Z,78.15
2022-11-16T19:29:06.660Z,78.01
2022-11-16T19:31:35.236Z,78.07
2022-11-16T19:34:06.275Z,77.65
2022-11-16T19:36:36.839Z,78.04
2022-11-16T19:39:06.795Z,78.05
2022-11-16T19:41:35.256Z,79.26
2022-11-16T19:44:04.093Z,77.62
2022-11-16T19:46:34.014Z,78.31
2022-11-16T19:49:02.575Z,78.29
2022-11-16T19:51:33.854Z,79.09
2022-11-16T19:54:03.316Z,78.30
2022-11-16T19:56:32.254Z,78.11
2022-11-16T19:59:01.477Z,78.67
2022-11-16T20:01:30.200Z,77.74
2022-11-16T20:04:01.254Z,78.97
2022-11-16T20:06:35.434Z,78.00
2022-11-16T20:09:12.011Z,78.25
2022-11-16T20:11:41.915Z,78.60
2022-11-16T20:14:12.423Z,77.49
2022-11-16T20:16:43.031Z,77.52
2022-11-16T20:19:12.016Z,78.15
2022-11-16T20:21:43.005Z,78.65
2022-11-16T20:24:16.366Z,78.48
2022-11-16T20:26:47.407Z,78.14
2022-11-16T20:29:17.463Z,77.50
2022-11-16T20:31:46.991Z,77.96
2022-11-16T20:34:17.438Z,78.58
2022-11-16T20:36:47.732Z,77.97
2022-11-16T20:39:18.762Z,78.90
2022-11-16T20:41:48.542Z,78.88
2022-11-16T20:44:21.788Z,78.02
2022-11-16T20:46:52.764Z,78.46
2022-11-16T20:49:21.422Z,78.73
2022-11-16T20:51:51.744Z,78.74
2022-11-16T20:54:20.318Z,79.11
2022-11-16T20:56:51.611Z,78.51
2022-11-16T20:59:20.392Z,79.17
2022-11-16T21:01:53.026Z,78.59
2022-11-16T21:04:21.554Z,78.32
2022-11-16T21:06:50.016Z,77.92
2022-11-16T21:09:23.319Z,79.18
2022-11-16T21:12:10.351Z,78.79
2022-11-16T21:14:38.834Z,78.65
2022-11-16T21:17:07.045Z,78.94
2022-11-16T21:19:35.561Z,78.06
2022-11-16T21:22:03.941Z,78.44
2022-11-16T21:24:32.926Z,78.92
2022-11-16T21:27:01.323Z,78.24
2022-11-16T21:29:31.140Z,77.86
2022-11-16T21:31:59.929Z,79.05
2022-11-16T21:34:35.853Z,77.86
2022-11-16T21:37:07.344Z,78.25
2022-11-16T21:39:35.962Z,78.37
2022-11-16T21:42:04.631Z,78.11
2022-11-16T21:44:42.512Z,78.49
2022-11-16T21:47:14.830Z,77.76
2022-11-16T21:50:02.417Z,78.18
2022-11-16T21:52:31.869Z,78.40
2022-11-16T21:55:00.461Z,78.21
2022-11-16T21:57:29.188Z,78.40
2022-11-16T21:59:57.898Z,78.24
2022-11-16T22:02:26.710Z,78.38
2022-11-16T22:05:13.980Z,78.09
2022-11-16T22:07:43.039Z,79.03
2022-11-16T22:10:13.571Z,79.12
2022-11-16T22:12:42.226Z,78.67
2022-11-16T22:15:11.401Z,78.51
2022-11-16T22:17:45.379Z,78.23
2022-11-16T22:20:14.145Z,78.23
2022-11-16T22:22:42.756Z,78.73
2022-11-16T22:25:12.056Z,78.09
2022-11-16T22:28:05.584Z,79.02
2022-11-16T22:30:30.139Z,79.10
2022-11-16T22:32:58.800Z,78.84
2022-11-16T22:35:27.407Z,78.98
2022-11-16T22:37:56.824Z,78.21
2022-11-16T22:40:25.618Z,78.70
2022-11-16T22:42:58.300Z,78.42
2022-11-16T22:45:28.025Z,78.69
2022-11-16T22:47:57.306Z,78.98
2022-11-16T22:50:25.878Z,78.42
2022-11-16T22:52:54.700Z,78.75
2022-11-16T22:55:23.202Z,79.14
2022-11-16T22:57:51.927Z,78.48
2022-11-16T23:00:21.023Z,77.67
2022-11-16T23:02:49.892Z,77.11
2022-11-16T23:05:18.495Z,78.53
2022-11-16T23:07:47.078Z,77.63
2022-11-16T23:10:16.083Z,77.77
2022-11-16T23:13:03.214Z,76.69
2022-11-16T23:15:49.699Z,77.08
2022-11-16T23:18:20.239Z,77.60
2022-11-16T23:21:07.221Z,76.88
2022-11-16T23:23:54.461Z,76.76
2022-11-16T23:26:43.288Z,76.67
2022-11-16T23:29:12.602Z,77.21
2022-11-16T23:31:41.140Z,77.21
2022-11-16T23:34:09.999Z,77.42
2022-11-16T23:36:38.896Z,76.59
2022-11-16T23:39:07.601Z,77.70
2022-11-16T23:41:54.735Z,76.35
2022-11-16T23:44:23.204Z,76.32
2022-11-16T23:46:51.942Z,75.88
2022-11-16T23:49:23.331Z,76.66
2022-11-16T23:51:52.041Z,76.24
2022-11-16T23:54:20.424Z,76.38
2022-11-16T23:56:49.098Z,76.39
2022-11-16T23:59:17.801Z,77.10
